Time;durP1;ratioP1;P1;durP2;ratioP2;P2;SDS_P1;SDS_P2;PMS_P1;PMS_P2;Temp;Humidity;BMP_temperature;BMP_pressure;BME280_temperature;BME280_humidity;BME280_pressure;Samples;Min_cycle;Max_cycle;Signal;HPM_P1;HPM_P2
2022/11/20 00:01:09;;;;;;;31.45;18.77;;;-3.30;99.90;;;;;;4302864;28;9999962;-76
2022/11/20 00:03:35;;;;;;;36.13;20.27;;;-3.40;99.90;;;;;;4992645;28;20662;-76
2022/11/20 00:06:02;;;;;;;36.17;20.27;;;-3.50;99.90;;;;;;4991561;28;20037;-76
2022/11/20 00:08:28;;;;;;;36.20;20.60;;;-3.50;99.90;;;;;;4990373;28;20025;-76
2022/11/20 00:10:53;;;;;;;37.05;20.73;;;-3.50;99.90;;;;;;4988627;28;20040;-76
2022/11/20 00:13:19;;;;;;;36.67;20.33;;;-3.50;99.90;;;;;;5000390;28;20034;-75
2022/11/20 00:15:45;;;;;;;33.80;19.10;;;-3.50;99.90;;;;;;4994121;28;20517;-76
2022/11/20 00:18:10;;;;;;;34.20;19.23;;;-3.60;99.90;;;;;;4999987;28;20034;-76
2022/11/20 00:20:36;;;;;;;31.88;18.58;;;-3.60;99.90;;;;;;4993462;28;20068;-76
2022/11/20 00:23:02;;;;;;;32.88;19.10;;;-3.60;99.90;;;;;;4986739;28;20116;-76
2022/11/20 00:25:27;;;;;;;32.55;18.60;;;-3.60;99.90;;;;;;4991600;28;20032;-75
2022/11/20 00:27:53;;;;;;;38.35;21.27;;;-3.60;99.90;;;;;;4996711;28;20065;-74
2022/11/20 00:30:18;;;;;;;34.38;19.58;;;-3.70;99.90;;;;;;4992756;28;20054;-75
2022/11/20 00:32:44;;;;;;;37.28;20.30;;;-3.70;99.90;;;;;;4989037;28;20029;-74
2022/11/20 00:35:10;;;;;;;34.00;19.15;;;-3.70;99.90;;;;;;4986585;28;20040;-75
2022/11/20 00:37:35;;;;;;;30.67;18.40;;;-3.80;99.90;;;;;;4994289;28;20037;-74
2022/11/20 00:40:01;;;;;;;34.83;18.75;;;-3.90;99.90;;;;;;4984293;28;20037;-74
2022/11/20 00:42:26;;;;;;;33.72;19.58;;;-3.90;99.90;;;;;;4985094;28;20478;-75
2022/11/20 00:44:52;;;;;;;34.22;19.10;;;-3.90;99.90;;;;;;4991066;28;20033;-75
2022/11/20 00:47:18;;;;;;;34.53;19.38;;;-4.00;99.90;;;;;;4999481;28;20112;-75
2022/11/20 00:49:43;;;;;;;33.10;17.70;;;-4.00;99.90;;;;;;4997532;28;20040;-75
2022/11/20 00:52:09;;;;;;;31.45;16.65;;;-3.90;99.90;;;;;;4988993;28;20044;-75
2022/11/20 00:54:35;;;;;;;28.75;16.38;;;-3.90;99.90;;;;;;4993945;28;22668;-75
2022/11/20 00:57:00;;;;;;;28.02;15.60;;;-3.80;99.90;;;;;;5008888;28;20033;-75
2022/11/20 00:59:26;;;;;;;28.65;15.63;;;-3.80;99.90;;;;;;4996364;28;20752;-75
2022/11/20 01:01:51;;;;;;;25.05;14.77;;;-3.70;99.90;;;;;;4996424;28;20040;-74
2022/11/20 01:04:17;;;;;;;25.42;14.35;;;-3.80;99.90;;;;;;4994181;28;20066;-74
2022/11/20 01:06:43;;;;;;;29.30;15.50;;;-3.90;99.90;;;;;;4995958;28;20058;-75
2022/11/20 01:09:13;;;;;;;27.85;15.60;;;-3.80;99.90;;;;;;4997307;28;20060;-75
2022/11/20 01:11:42;;;;;;;26.27;14.52;;;-3.90;99.90;;;;;;5000252;28;21845;-75
2022/11/20 01:14:15;;;;;;;28.00;16.45;;;-3.80;99.90;;;;;;5007729;28;20084;-75
2022/11/20 01:16:43;;;;;;;30.70;16.10;;;-3.80;99.90;;;;;;5008895;28;20026;-75
2022/11/20 01:19:15;;;;;;;29.80;16.23;;;-3.80;99.90;;;;;;5002314;28;20056;-75
2022/11/20 01:21:42;;;;;;;33.55;17.02;;;-3.70;99.90;;;;;;4996696;28;20033;-75
2022/11/20 01:24:11;;;;;;;29.40;16.17;;;-3.70;99.90;;;;;;4993354;28;20044;-75
2022/11/20 01:26:38;;;;;;;30.27;16.60;;;-3.70;99.90;;;;;;4995485;28;20033;-75
2022/11/20 01:29:05;;;;;;;30.38;16.05;;;-3.80;99.90;;;;;;4991202;28;20041;-75
2022/11/20 01:31:33;;;;;;;30.08;16.55;;;-3.70;99.90;;;;;;4996859;28;20622;-75
2022/11/20 01:34:02;;;;;;;26.52;15.52;;;-3.80;99.90;;;;;;5000152;28;20038;-75
2022/11/20 01:36:31;;;;;;;28.33;15.85;;;-3.80;99.90;;;;;;4995912;28;20099;-75
2022/11/20 01:38:59;;;;;;;29.02;15.60;;;-3.80;99.90;;;;;;4994469;28;20492;-75
2022/11/20 01:44:17;;;;;;;28.67;15.57;;;-3.80;99.90;;;;;;4998532;28;20037;-75
2022/11/20 01:46:52;;;;;;;30.42;15.75;;;-3.90;99.90;;;;;;5002962;28;20843;-75
2022/11/20 01:49:29;;;;;;;32.60;17.30;;;-3.90;99.90;;;;;;4995819;28;20480;-76
2022/11/20 01:52:01;;;;;;;32.05;16.65;;;-3.80;99.90;;;;;;5000347;28;20112;-75
2022/11/20 01:54:40;;;;;;;21.85;12.15;;;-3.80;99.90;;;;;;4997096;28;20045;-75
2022/11/20 01:57:08;;;;;;;38.05;18.63;;;-3.80;99.90;;;;;;5002813;28;20041;-75
2022/11/20 01:59:35;;;;;;;35.35;18.60;;;-3.80;99.90;;;;;;4999536;28;20038;-74
2022/11/20 02:02:01;;;;;;;41.88;18.88;;;-3.80;99.90;;;;;;4999804;28;20041;-74
2022/11/20 02:04:26;;;;;;;38.47;19.85;;;-3.70;99.90;;;;;;4997267;28;20382;-74
2022/11/20 02:07:00;;;;;;;35.92;18.85;;;-3.70;99.90;;;;;;4995505;28;20149;-74
2022/11/20 02:09:27;;;;;;;38.50;19.13;;;-3.80;99.90;;;;;;4995216;28;20036;-74
2022/11/20 02:11:53;;;;;;;39.55;19.50;;;-3.70;99.90;;;;;;5001194;28;20065;-74
2022/11/20 02:14:20;;;;;;;36.08;19.25;;;-3.80;99.90;;;;;;5005899;28;20037;-74
2022/11/20 02:16:48;;;;;;;36.63;18.52;;;-3.80;99.90;;;;;;5007275;28;20026;-75
2022/11/20 02:19:21;;;;;;;37.15;18.70;;;-3.80;99.90;;;;;;5008303;28;20130;-74
2022/11/20 02:22:04;;;;;;;38.28;19.88;;;-3.70;99.90;;;;;;5005153;28;20026;-75
2022/11/20 02:24:30;;;;;;;;;;;-3.70;99.90;;;;;;5010553;28;20102;-75
2022/11/20 02:27:08;;;;;;;33.60;17.52;;;-3.70;99.90;;;;;;5003170;28;20385;-75
2022/11/20 02:29:46;;;;;;;36.13;18.73;;;-3.60;99.90;;;;;;5002952;28;20091;-75
2022/11/20 02:32:27;;;;;;;36.17;18.42;;;-3.50;99.90;;;;;;5012274;28;20052;-75
2022/11/20 02:34:52;;;;;;;37.28;18.92;;;-3.50;99.90;;;;;;5006222;28;20436;-75
2022/11/20 02:37:20;;;;;;;34.60;18.63;;;-3.50;99.90;;;;;;5001439;28;20136;-75
2022/11/20 02:39:51;;;;;;;36.53;19.48;;;-3.50;99.90;;;;;;5008379;28;20044;-75
2022/11/20 02:42:17;;;;;;;36.83;18.27;;;-3.50;99.90;;;;;;5007652;28;20086;-75
2022/11/20 02:44:43;;;;;;;38.22;19.17;;;-3.50;99.90;;;;;;5003211;28;20037;-75
2022/11/20 02:47:09;;;;;;;36.17;18.55;;;-3.60;99.90;;;;;;5007688;28;20041;-75
2022/11/20 02:49:35;;;;;;;34.25;17.90;;;-3.60;99.90;;;;;;5007789;28;20044;-75
2022/11/20 02:52:00;;;;;;;35.90;19.10;;;-3.70;99.90;;;;;;5009308;28;20402;-75
2022/11/20 02:54:41;;;;;;;35.97;20.02;;;-3.70;99.90;;;;;;5006989;28;20528;-75
2022/11/20 02:57:07;;;;;;;36.28;18.83;;;-3.50;99.90;;;;;;5000894;28;20394;-75
2022/11/20 02:59:33;;;;;;;39.92;20.00;;;-3.50;99.90;;;;;;5000930;28;20044;-75
2022/11/20 03:01:58;;;;;;;38.72;20.20;;;-3.50;99.90;;;;;;4997651;28;20022;-75
2022/11/20 03:04:24;;;;;;;40.70;19.85;;;-3.40;99.90;;;;;;4993939;28;20385;-76
2022/11/20 03:06:49;;;;;;;37.38;19.83;;;-3.40;99.90;;;;;;4991286;28;21096;-75
2022/11/20 03:09:15;;;;;;;36.47;19.02;;;-3.40;99.90;;;;;;4984295;28;20223;-75
2022/11/20 03:11:40;;;;;;;39.88;20.27;;;-3.40;99.90;;;;;;4993762;28;20040;-76
2022/11/20 03:14:06;;;;;;;37.72;19.65;;;-3.40;99.90;;;;;;4993630;28;20185;-75
2022/11/20 03:16:32;;;;;;;37.45;19.77;;;-3.40;99.90;;;;;;4993952;28;20025;-75
2022/11/20 03:18:59;;;;;;;39.85;19.92;;;-3.50;99.90;;;;;;4996657;28;20469;-75
2022/11/20 03:21:24;;;;;;;36.55;18.88;;;-3.50;99.90;;;;;;4988892;28;20461;-75
2022/11/20 03:23:50;;;;;;;36.70;19.15;;;-3.50;99.90;;;;;;4995892;28;20018;-75
2022/11/20 03:26:24;;;;;;;37.45;18.15;;;-3.50;99.90;;;;;;4996426;28;20879;-75
2022/11/20 03:28:54;;;;;;;36.97;19.45;;;-3.40;99.90;;;;;;4994515;28;20393;-76
2022/11/20 03:31:23;;;;;;;39.80;20.40;;;-3.40;99.90;;;;;;4988236;28;20746;-74
2022/11/20 03:33:49;;;;;;;41.20;20.92;;;-3.30;99.90;;;;;;5001365;28;20129;-74
2022/11/20 03:36:17;;;;;;;42.80;20.80;;;-3.30;99.90;;;;;;5005620;28;20204;-74
2022/11/20 03:38:43;;;;;;;43.35;21.27;;;-3.30;99.90;;;;;;5001764;28;20116;-74
2022/11/20 03:41:20;;;;;;;42.25;21.25;;;-3.30;99.90;;;;;;4996159;28;20022;-75
2022/11/20 03:43:50;;;;;;;35.92;19.02;;;-3.30;99.90;;;;;;4998499;28;20573;-74
2022/11/20 03:46:16;;;;;;;39.55;19.73;;;-3.30;99.90;;;;;;5000082;28;20051;-75
2022/11/20 03:48:42;;;;;;;36.25;19.10;;;-3.40;99.90;;;;;;5003640;28;20048;-75
2022/11/20 03:51:13;;;;;;;37.03;20.08;;;-3.40;99.90;;;;;;5001985;28;20029;-75
2022/11/20 03:53:40;;;;;;;41.22;20.52;;;-3.30;99.90;;;;;;5002519;28;20516;-75
2022/11/20 03:56:07;;;;;;;39.95;20.42;;;-3.30;99.90;;;;;;4999775;28;20374;-75
2022/11/20 03:58:35;;;;;;;36.85;19.88;;;-3.10;99.90;;;;;;5000513;28;20034;-75
2022/11/20 04:01:16;;;;;;;38.75;20.38;;;-3.10;99.90;;;;;;4998888;28;21115;-75
2022/11/20 04:03:42;;;;;;;39.70;20.45;;;-3.00;99.90;;;;;;5004269;28;20037;-75
2022/11/20 04:06:12;;;;;;;35.35;18.95;;;-3.00;99.90;;;;;;4993767;28;20029;-75
2022/11/20 04:08:38;;;;;;;36.55;19.73;;;-3.00;99.90;;;;;;5004727;28;20057;-75
2022/11/20 04:11:17;;;;;;;36.17;19.05;;;-3.00;99.90;;;;;;5000273;28;20034;-75
2022/11/20 04:13:47;;;;;;;36.78;19.48;;;-3.00;99.90;;;;;;5005022;28;20106;-75
2022/11/20 04:16:13;;;;;;;39.17;20.83;;;-3.10;99.90;;;;;;5002953;28;20029;-75
2022/11/20 04:18:39;;;;;;;38.25;20.42;;;-3.00;99.90;;;;;;5001519;28;20061;-74
2022/11/20 04:21:05;;;;;;;45.15;21.80;;;-3.00;99.90;;;;;;5004074;28;20053;-75
2022/11/20 04:23:31;;;;;;;39.65;20.80;;;-3.00;99.90;;;;;;5003826;28;20053;-75
2022/11/20 04:26:10;;;;;;;37.08;20.75;;;-2.90;99.90;;;;;;4997468;28;20048;-74
2022/11/20 04:28:36;;;;;;;39.35;21.17;;;-2.90;99.90;;;;;;5000554;28;20037;-74
2022/11/20 04:31:14;;;;;;;41.08;20.58;;;-2.90;99.90;;;;;;5003323;28;20053;-74
2022/11/20 04:33:40;;;;;;;38.45;21.25;;;-2.90;99.90;;;;;;5002339;28;20118;-74
2022/11/20 04:36:10;;;;;;;39.83;21.75;;;-3.00;99.90;;;;;;5000747;28;20116;-74
2022/11/20 04:38:36;;;;;;;37.20;20.33;;;-3.00;99.90;;;;;;5003154;28;20029;-74
2022/11/20 04:41:04;;;;;;;36.30;19.05;;;-2.90;99.90;;;;;;5001581;28;20044;-74
2022/11/20 04:43:31;;;;;;;37.25;18.85;;;-2.90;99.90;;;;;;5003213;28;20032;-74
2022/11/20 04:45:58;;;;;;;36.22;19.63;;;-2.90;99.90;;;;;;5001226;28;20040;-74
2022/11/20 04:48:25;;;;;;;37.17;19.73;;;-2.90;99.90;;;;;;4998435;28;20026;-74
2022/11/20 04:50:51;;;;;;;33.25;18.55;;;-2.80;99.90;;;;;;4997810;28;20034;-74
2022/11/20 04:53:18;;;;;;;39.60;21.00;;;-2.90;99.90;;;;;;5001529;28;20018;-74
2022/11/20 04:55:43;;;;;;;37.67;20.55;;;-2.80;99.90;;;;;;5002537;28;20525;-74
2022/11/20 04:58:09;;;;;;;38.08;20.83;;;-2.80;99.90;;;;;;4999277;28;20041;-74
2022/11/20 05:00:35;;;;;;;37.05;19.95;;;-2.70;99.90;;;;;;5000041;28;20117;-75
2022/11/20 05:03:01;;;;;;;38.45;20.25;;;-2.70;99.90;;;;;;4999275;28;20677;-74
2022/11/20 05:05:26;;;;;;;36.25;19.33;;;-2.60;99.90;;;;;;5007873;28;21898;-75
2022/11/20 05:07:52;;;;;;;38.67;20.70;;;-2.60;99.90;;;;;;5005523;28;20597;-74
2022/11/20 05:10:17;;;;;;;38.80;20.65;;;-2.50;99.90;;;;;;4990385;28;20091;-74
2022/11/20 05:12:43;;;;;;;34.75;18.95;;;-2.40;99.90;;;;;;5011214;28;20033;-74
2022/11/20 05:15:09;;;;;;;38.72;20.80;;;-2.40;99.90;;;;;;5001945;28;21524;-74
2022/11/20 05:17:35;;;;;;;37.33;19.83;;;-2.40;99.90;;;;;;5007918;28;20034;-74
2022/11/20 05:20:00;;;;;;;38.47;20.92;;;-2.40;99.90;;;;;;5000114;28;20030;-74
2022/11/20 05:22:26;;;;;;;39.28;20.73;;;-2.50;99.90;;;;;;5002247;28;20045;-74
2022/11/20 05:24:51;;;;;;;42.42;20.60;;;-2.40;99.90;;;;;;5001747;28;20091;-74
2022/11/20 05:27:18;;;;;;;36.95;20.58;;;-2.30;99.90;;;;;;5000945;28;20033;-75
2022/11/20 05:29:44;;;;;;;38.70;20.10;;;-2.20;99.90;;;;;;5004413;28;20766;-74
2022/11/20 05:32:10;;;;;;;35.70;19.50;;;-2.00;99.90;;;;;;5003416;28;20065;-75
2022/11/20 05:34:36;;;;;;;34.90;19.23;;;-1.90;99.90;;;;;;5001967;28;20064;-74
2022/11/20 05:37:02;;;;;;;33.78;18.08;;;-1.90;99.90;;;;;;5002130;28;20504;-75
2022/11/20 05:39:28;;;;;;;37.00;19.20;;;-2.00;99.90;;;;;;5003393;28;20461;-75
2022/11/20 05:44:39;;;;;;;36.53;18.80;;;-2.20;99.90;;;;;;5004589;28;20043;-74
2022/11/20 05:47:05;;;;;;;43.53;21.90;;;-2.30;99.90;;;;;;4997422;28;20030;-74
2022/11/20 05:49:30;;;;;;;35.38;19.17;;;-2.40;99.90;;;;;;5006506;28;20508;-75
2022/11/20 05:51:56;;;;;;;39.92;19.58;;;-2.40;99.90;;;;;;5005855;28;20111;-73
2022/11/20 05:54:22;;;;;;;43.35;22.02;;;-2.40;99.90;;;;;;5009683;28;20021;-74
2022/11/20 05:56:47;;;;;;;42.25;21.67;;;-2.30;99.90;;;;;;5009885;28;20642;-74
2022/11/20 05:59:13;;;;;;;42.00;20.83;;;-2.20;99.90;;;;;;5006438;28;20629;-74
2022/11/20 06:01:38;;;;;;;43.72;21.77;;;-2.20;99.90;;;;;;5002981;28;20037;-74
2022/11/20 06:04:04;;;;;;;46.47;22.38;;;-2.20;99.90;;;;;;5003975;28;20086;-74
2022/11/20 06:06:30;;;;;;;42.55;21.70;;;-2.10;99.90;;;;;;5008533;28;20037;-74
2022/11/20 06:08:55;;;;;;;47.08;24.00;;;-2.20;99.90;;;;;;5004229;28;20488;-75
2022/11/20 06:11:21;;;;;;;43.58;21.05;;;-2.20;99.90;;;;;;5003738;28;20037;-74
2022/11/20 06:13:47;;;;;;;47.08;21.42;;;-2.30;99.90;;;;;;4999687;28;20029;-74
2022/11/20 06:16:16;;;;;;;41.80;19.85;;;-2.30;99.90;;;;;;5003705;28;20037;-75
2022/11/20 06:18:42;;;;;;;41.85;21.23;;;-2.40;99.90;;;;;;5008583;28;20049;-74
2022/11/20 06:21:12;;;;;;;43.63;21.75;;;-2.40;99.90;;;;;;5002403;28;20836;-74
2022/11/20 06:23:37;;;;;;;44.22;22.63;;;-2.30;99.90;;;;;;5003245;28;20065;-74
2022/11/20 06:26:09;;;;;;;44.80;22.13;;;-2.20;99.90;;;;;;5004283;28;20072;-75
2022/11/20 06:28:35;;;;;;;53.67;25.42;;;-2.20;99.90;;;;;;5008005;28;20037;-74
2022/11/20 06:31:01;;;;;;;52.38;23.08;;;-2.20;99.90;;;;;;4996136;28;20045;-74
2022/11/20 06:33:27;;;;;;;57.83;23.95;;;-2.20;99.90;;;;;;4997560;28;20072;-74
2022/11/20 06:35:56;;;;;;;48.03;22.92;;;-2.20;99.90;;;;;;4997434;28;20037;-75
2022/11/20 06:38:22;;;;;;;55.47;25.20;;;-2.30;99.90;;;;;;5000299;28;20033;-74
2022/11/20 06:40:47;;;;;;;52.30;25.70;;;-2.30;99.90;;;;;;4997771;28;20025;-74
2022/11/20 06:43:13;;;;;;;47.20;23.40;;;-2.30;99.90;;;;;;4998508;28;20069;-74
2022/11/20 06:45:38;;;;;;;47.30;23.25;;;-2.20;99.90;;;;;;5000714;28;20052;-73
2022/11/20 06:48:04;;;;;;;44.13;20.77;;;-2.20;99.90;;;;;;4996927;28;20026;-74
2022/11/20 06:50:30;;;;;;;38.78;18.05;;;-2.20;99.90;;;;;;5000613;28;20026;-74
2022/11/20 06:52:56;;;;;;;35.95;16.80;;;-2.20;99.90;;;;;;5002699;28;20033;-75
2022/11/20 06:55:22;;;;;;;31.13;15.32;;;-2.20;99.90;;;;;;4997177;28;20464;-75
2022/11/20 06:57:47;;;;;;;31.73;15.95;;;-2.10;99.90;;;;;;4996078;28;20041;-74
2022/11/20 07:00:13;;;;;;;30.95;14.68;;;-2.00;99.90;;;;;;5000858;28;20695;-73
2022/11/20 07:02:39;;;;;;;32.58;15.10;;;-1.90;99.90;;;;;;5003170;28;20068;-74
2022/11/20 07:05:05;;;;;;;29.35;13.73;;;-1.80;99.90;;;;;;5001590;28;20464;-74
2022/11/20 07:07:30;;;;;;;31.23;14.15;;;-1.70;99.90;;;;;;5005138;28;20034;-74
2022/11/20 07:09:56;;;;;;;25.85;13.15;;;-1.70;99.90;;;;;;5002671;28;20038;-74
2022/11/20 07:12:22;;;;;;;26.08;13.07;;;-1.80;99.90;;;;;;4997682;28;20033;-74
2022/11/20 07:14:47;;;;;;;37.03;17.05;;;-1.90;99.90;;;;;;5003143;28;20100;-74
2022/11/20 07:17:13;;;;;;;43.72;20.52;;;-1.90;99.90;;;;;;5004405;28;22453;-74
2022/11/20 07:19:38;;;;;;;40.63;18.80;;;-1.90;99.90;;;;;;5002076;28;20037;-73
2022/11/20 07:22:04;;;;;;;36.03;17.02;;;-1.80;99.90;;;;;;4999773;28;20617;-74
2022/11/20 07:24:30;;;;;;;29.65;14.82;;;-1.90;99.90;;;;;;5001679;28;20044;-74
2022/11/20 07:26:55;;;;;;;32.05;16.85;;;-1.90;99.90;;;;;;5002119;28;20030;-74
2022/11/20 07:29:21;;;;;;;37.05;17.65;;;-2.00;99.90;;;;;;5003476;28;20091;-74
2022/11/20 07:31:47;;;;;;;31.75;16.15;;;-1.90;99.90;;;;;;5000773;28;20080;-74
2022/11/20 07:34:12;;;;;;;36.95;18.80;;;-1.90;99.90;;;;;;4996976;28;20900;-74
2022/11/20 07:36:38;;;;;;;41.10;20.30;;;-1.80;99.90;;;;;;5007261;28;20028;-75
2022/11/20 07:39:04;;;;;;;43.20;20.77;;;-1.80;99.90;;;;;;5005009;28;20041;-74
2022/11/20 07:41:29;;;;;;;34.28;16.88;;;-1.70;99.90;;;;;;4997668;28;20037;-74
2022/11/20 07:43:55;;;;;;;34.10;16.88;;;-1.70;99.90;;;;;;4998267;28;20033;-74
2022/11/20 07:46:21;;;;;;;70.15;30.15;;;-1.60;99.90;;;;;;5003327;28;20037;-74
2022/11/20 07:48:46;;;;;;;86.32;35.88;;;-1.60;99.90;;;;;;5002194;28;20133;-75
2022/11/20 07:51:13;;;;;;;56.85;25.15;;;-1.70;99.90;;;;;;5003559;28;20116;-75
2022/11/20 07:53:38;;;;;;;51.05;24.98;;;-1.70;99.90;;;;;;5003485;28;20508;-74
2022/11/20 07:56:04;;;;;;;53.88;25.10;;;-1.70;99.90;;;;;;5003382;28;20026;-74
2022/11/20 07:58:32;;;;;;;56.72;27.67;;;-1.70;99.90;;;;;;5003476;28;20117;-74
2022/11/20 08:01:02;;;;;;;58.58;27.70;;;-1.70;99.90;;;;;;4998700;28;20033;-74
2022/11/20 08:03:28;;;;;;;55.22;25.13;;;-1.60;99.90;;;;;;4997898;28;20035;-74
2022/11/20 08:05:53;;;;;;;53.58;25.25;;;-1.60;99.90;;;;;;5002337;28;20021;-74
2022/11/20 08:08:19;;;;;;;49.90;23.92;;;-1.60;99.90;;;;;;5000860;28;20044;-75
2022/11/20 08:10:45;;;;;;;42.03;21.77;;;-1.50;99.90;;;;;;4999876;28;20391;-74
2022/11/20 08:15:54;;;;;;;34.83;16.98;;;-1.50;99.90;;;;;;5001872;28;20045;-74
2022/11/20 08:18:20;;;;;;;37.45;17.15;;;-1.40;99.90;;;;;;5001881;28;20041;-73
2022/11/20 08:20:45;;;;;;;34.20;16.98;;;-1.40;99.90;;;;;;4998692;28;20037;-74
2022/11/20 08:23:11;;;;;;;34.40;16.63;;;-1.40;99.90;;;;;;4999001;28;20139;-74
2022/11/20 08:25:38;;;;;;;35.55;17.35;;;-1.30;99.90;;;;;;4997335;28;20056;-74
2022/11/20 08:28:06;;;;;;;39.58;18.13;;;-1.30;99.90;;;;;;4999330;28;20975;-74
2022/11/20 08:30:33;;;;;;;33.00;17.17;;;-1.20;99.90;;;;;;5002474;28;21958;-74
2022/11/20 08:33:04;;;;;;;37.70;18.88;;;-1.30;99.90;;;;;;5000039;28;20025;-73
2022/11/20 08:35:37;;;;;;;45.97;20.73;;;-1.20;99.90;;;;;;4999595;28;20029;-74
2022/11/20 08:38:04;;;;;;;48.08;21.48;;;-1.20;99.90;;;;;;4998288;28;20837;-74
2022/11/20 08:40:30;;;;;;;40.45;20.88;;;-1.20;99.90;;;;;;5004354;28;20037;-74
2022/11/20 08:42:56;;;;;;;42.60;20.30;;;-1.20;99.90;;;;;;5000563;28;20448;-74
2022/11/20 08:45:22;;;;;;;43.30;20.20;;;-1.20;99.90;;;;;;5003081;28;20025;-74
2022/11/20 08:47:48;;;;;;;40.00;20.25;;;-1.00;99.90;;;;;;5003775;28;20094;-75
2022/11/20 08:50:16;;;;;;;42.42;20.30;;;-0.90;99.90;;;;;;4996747;28;20729;-74
2022/11/20 08:52:42;;;;;;;36.30;17.85;;;-0.80;99.90;;;;;;5003009;28;20512;-74
2022/11/20 08:55:08;;;;;;;35.63;18.33;;;-0.70;99.90;;;;;;5006292;28;22878;-74
2022/11/20 08:57:38;;;;;;;33.65;16.73;;;-0.70;99.90;;;;;;5005834;28;20489;-74
2022/11/20 09:00:05;;;;;;;34.88;17.80;;;-0.60;99.90;;;;;;4999622;28;20041;-74
2022/11/20 09:02:32;;;;;;;37.05;18.23;;;-0.50;99.90;;;;;;4997506;28;20056;-74
2022/11/20 09:04:58;;;;;;;38.35;18.10;;;-0.40;99.90;;;;;;5002232;28;20430;-74
2022/11/20 09:07:23;;;;;;;39.00;18.00;;;-0.40;99.90;;;;;;5003037;28;20144;-74
2022/11/20 09:09:49;;;;;;;34.35;17.63;;;-0.40;99.90;;;;;;5001618;28;20053;-74
2022/11/20 09:12:15;;;;;;;32.83;16.70;;;-0.30;99.90;;;;;;4997941;28;20457;-74
2022/11/20 09:14:41;;;;;;;33.00;16.67;;;-0.20;99.90;;;;;;5002836;28;20296;-75
2022/11/20 09:17:07;;;;;;;34.58;17.35;;;-0.20;99.90;;;;;;5007075;28;20087;-74
2022/11/20 09:19:33;;;;;;;39.95;18.70;;;-0.20;99.90;;;;;;4657337;28;10000163;-74
2022/11/20 09:21:59;;;;;;;34.40;16.98;;;-0.20;99.90;;;;;;4999978;28;20030;-75
2022/11/20 09:24:26;;;;;;;39.50;18.88;;;-0.20;99.90;;;;;;4998332;28;20021;-75
2022/11/20 09:26:51;;;;;;;53.72;26.60;;;-0.20;99.90;;;;;;4997671;28;20664;-74
2022/11/20 09:29:17;;;;;;;56.75;25.92;;;-0.20;99.90;;;;;;4996502;28;20029;-74
2022/11/20 09:31:42;;;;;;;52.97;25.25;;;-0.30;99.90;;;;;;4999642;28;20117;-74
2022/11/20 09:34:08;;;;;;;56.45;25.27;;;-0.30;99.90;;;;;;5000701;28;20038;-74
2022/11/20 09:36:34;;;;;;;36.80;18.73;;;-0.30;99.90;;;;;;5002086;28;20513;-75
2022/11/20 09:38:59;;;;;;;36.50;17.77;;;-0.30;99.90;;;;;;4999729;28;20122;-74
2022/11/20 09:41:45;;;;;;;32.38;16.50;;;-0.10;99.90;;;;;;5003863;28;20029;-74
2022/11/20 09:44:28;;;;;;;40.75;19.13;;;0.10;99.90;;;;;;5000515;28;20044;-74
2022/11/20 09:47:02;;;;;;;40.78;19.73;;;0.10;99.90;;;;;;4999662;28;20029;-74
2022/11/20 09:49:49;;;;;;;47.47;21.17;;;0.20;99.90;;;;;;5002019;28;20095;-74
2022/11/20 09:52:29;;;;;;;44.35;19.63;;;0.20;99.90;;;;;;4997156;28;20033;-74
2022/11/20 09:54:55;;;;;;;41.03;21.10;;;0.30;99.90;;;;;;4997885;28;20543;-74
2022/11/20 09:57:33;;;;;;;39.15;19.50;;;0.40;99.90;;;;;;5001596;28;20071;-74
2022/11/20 10:00:02;;;;;;;39.20;19.83;;;0.40;99.90;;;;;;4999536;28;20064;-74
2022/11/20 10:02:41;;;;;;;41.80;21.35;;;0.40;99.90;;;;;;4999985;28;20030;-74
2022/11/20 10:05:22;;;;;;;43.55;20.52;;;0.40;99.90;;;;;;4997178;28;20022;-75
2022/11/20 10:08:03;;;;;;;39.40;18.60;;;0.40;99.90;;;;;;5001628;28;20037;-74
2022/11/20 10:10:39;;;;;;;39.63;19.63;;;0.50;99.90;;;;;;5001040;28;20029;-74
2022/11/20 10:13:10;;;;;;;38.30;18.90;;;0.40;99.90;;;;;;4995167;28;20052;-75
2022/11/20 10:15:51;;;;;;;40.35;19.88;;;0.40;99.90;;;;;;5000394;28;20034;-74
2022/11/20 10:18:43;;;;;;;38.83;19.13;;;0.50;99.90;;;;;;5000355;28;20515;-74
2022/11/20 10:21:35;;;;;;;37.47;19.67;;;0.50;99.90;;;;;;4997006;28;20087;-75
2022/11/20 10:24:40;;;;;;;45.40;21.33;;;0.50;99.90;;;;;;4994850;28;20276;-74
2022/11/20 10:27:18;;;;;;;50.17;24.55;;;0.40;99.90;;;;;;4999485;28;20041;-74
2022/11/20 10:29:53;;;;;;;52.60;24.13;;;0.40;99.90;;;;;;4995518;28;20032;-74
2022/11/20 10:32:25;;;;;;;48.95;23.30;;;0.30;99.90;;;;;;5001449;28;20050;-74
2022/11/20 10:35:17;;;;;;;46.42;22.33;;;0.40;99.90;;;;;;5003409;28;20499;-74
2022/11/20 10:37:46;;;;;;;30.37;15.13;;;0.40;99.90;;;;;;4999795;28;20060;-74
2022/11/20 10:40:35;;;;;;;36.78;19.63;;;0.50;99.90;;;;;;4996494;28;20105;-74
2022/11/20 10:43:12;;;;;;;41.67;19.90;;;0.70;99.90;;;;;;4998284;28;20045;-74
2022/11/20 10:46:01;;;;;;;43.30;21.75;;;0.80;99.90;;;;;;5001709;28;20421;-74
2022/11/20 10:48:28;;;;;;;40.30;20.55;;;0.80;99.90;;;;;;4998702;28;20034;-74
2022/11/20 10:51:28;;;;;;;39.40;20.40;;;0.90;99.90;;;;;;4998095;28;20065;-74
2022/11/20 10:54:19;;;;;;;39.50;19.55;;;0.90;99.90;;;;;;5002192;28;20034;-74
2022/11/20 10:56:52;;;;;;;37.35;19.15;;;1.10;99.90;;;;;;4997844;28;20025;-74
2022/11/20 10:59:55;;;;;;;37.50;19.73;;;1.20;99.90;;;;;;4998781;28;20029;-74
2022/11/20 11:02:23;;;;;;;40.33;19.85;;;1.20;99.90;;;;;;5005353;28;20771;-74
2022/11/20 11:04:53;;;;;;;40.95;20.52;;;1.20;99.90;;;;;;5000259;28;20060;-74
2022/11/20 11:07:34;;;;;;;40.33;21.13;;;1.20;99.90;;;;;;4998107;28;20207;-74
2022/11/20 11:10:00;;;;;;;38.00;20.20;;;1.20;99.90;;;;;;4994351;28;20053;-74
2022/11/20 11:12:28;;;;;;;39.70;19.75;;;1.30;99.90;;;;;;5002414;28;20116;-74
2022/11/20 11:14:56;;;;;;;37.50;19.17;;;1.40;99.90;;;;;;4998088;28;20478;-73
2022/11/20 11:17:34;;;;;;;36.70;19.30;;;1.40;99.90;;;;;;4994497;28;20652;-74
2022/11/20 11:20:17;;;;;;;40.40;19.70;;;1.40;99.90;;;;;;4996479;28;20045;-74
2022/11/20 11:22:49;;;;;;;39.05;19.33;;;1.40;99.90;;;;;;5000472;28;20083;-74
2022/11/20 11:25:35;;;;;;;38.33;19.67;;;1.40;99.90;;;;;;4997077;28;20617;-74
2022/11/20 11:28:19;;;;;;;39.95;19.75;;;1.30;99.90;;;;;;5000872;28;20038;-74
2022/11/20 11:30:45;;;;;;;36.17;17.95;;;1.20;99.90;;;;;;5000123;28;20041;-74
2022/11/20 11:33:18;;;;;;;40.15;19.98;;;1.10;99.90;;;;;;4998978;28;20029;-74
2022/11/20 11:35:46;;;;;;;46.42;22.88;;;1.00;99.90;;;;;;4998536;28;20116;-74
2022/11/20 11:38:23;;;;;;;46.28;22.13;;;1.00;99.90;;;;;;5003035;28;20253;-75
2022/11/20 11:40:52;;;;;;;47.78;21.95;;;0.70;99.90;;;;;;4996755;28;20474;-74
2022/11/20 11:46:27;;;;;;;52.47;25.05;;;0.50;99.90;;;;;;4998339;28;20233;-74
2022/11/20 11:49:17;;;;;;;50.47;23.33;;;0.60;99.90;;;;;;4998314;28;20034;-74
2022/11/20 11:52:04;;;;;;;50.50;24.42;;;0.50;99.90;;;;;;4996552;28;20603;-74
2022/11/20 11:54:51;;;;;;;48.75;23.55;;;0.50;99.90;;;;;;4993736;28;20053;-75
2022/11/20 11:57:23;;;;;;;48.85;22.85;;;0.50;99.90;;;;;;4995273;28;20762;-74
2022/11/20 12:00:03;;;;;;;45.10;21.58;;;0.70;99.90;;;;;;4997603;28;20151;-74
2022/11/20 12:02:48;;;;;;;45.58;21.38;;;0.80;99.90;;;;;;4993828;28;20022;-74
2022/11/20 12:05:27;;;;;;;44.28;21.95;;;0.80;99.90;;;;;;4995464;28;20058;-74
2022/11/20 12:08:12;;;;;;;42.22;20.70;;;1.00;99.90;;;;;;4992770;28;22074;-74
2022/11/20 12:10:57;;;;;;;41.45;20.70;;;1.00;99.90;;;;;;4994550;28;20159;-74
2022/11/20 12:13:53;;;;;;;47.15;22.60;;;1.10;99.90;;;;;;4997388;28;20140;-74
2022/11/20 12:16:20;;;;;;;46.80;22.95;;;1.20;99.90;;;;;;4994519;28;20040;-75
2022/11/20 12:18:49;;;;;;;46.80;22.77;;;1.20;99.90;;;;;;4995437;28;20041;-74
2022/11/20 12:21:43;;;;;;;45.97;22.95;;;1.30;99.90;;;;;;4998226;28;20092;-74
2022/11/20 12:24:33;;;;;;;44.22;21.63;;;1.40;99.90;;;;;;4988914;28;20400;-74
2022/11/20 12:27:15;;;;;;;37.92;20.05;;;1.40;99.90;;;;;;4993594;28;20047;-74
2022/11/20 12:29:51;;;;;;;39.88;20.13;;;1.40;99.90;;;;;;4994766;28;20033;-75
2022/11/20 12:32:25;;;;;;;38.78;19.92;;;1.50;99.90;;;;;;4998720;28;20505;-74
2022/11/20 12:34:54;;;;;;;39.47;20.17;;;1.60;99.90;;;;;;4997820;28;20030;-74
2022/11/20 12:37:41;;;;;;;38.85;20.98;;;1.60;99.90;;;;;;4995070;28;20018;-74
2022/11/20 12:40:28;;;;;;;39.63;20.88;;;1.60;99.90;;;;;;5001189;28;20037;-74
2022/11/20 12:45:53;;;;;;;39.60;20.52;;;1.50;99.90;;;;;;5000706;28;20701;-75
2022/11/20 12:48:49;;;;;;;42.92;21.10;;;1.30;99.90;;;;;;4992646;28;20478;-74
2022/11/20 12:51:34;;;;;;;46.38;24.00;;;1.20;99.90;;;;;;4998121;28;20095;-74
2022/11/20 12:53:59;;;;;;;39.58;19.77;;;1.10;99.90;;;;;;5001094;28;20037;-75
2022/11/20 12:57:04;;;;;;;42.03;22.65;;;1.00;99.90;;;;;;4994963;28;20034;-74